Time;durP1;ratioP1;P1;durP2;ratioP2;P2;SDS_P1;SDS_P2;PMS_P1;PMS_P2;Temp;Humidity;BMP_temperature;BMP_pressure;BME280_temperature;BME280_humidity;BME280_pressure;Samples;Min_cycle;Max_cycle;Signal;HPM_P1;HPM_P2
2022/03/10 00:01:50;;;;;;;39.15;26.73;;;;;;;3.73;nan;102242.31;5052910;28;20040;-58
2022/03/10 00:04:15;;;;;;;37.85;25.75;;;;;;;3.20;nan;102160.66;5053013;28;20115;-55
2022/03/10 00:06:40;;;;;;;37.25;26.63;;;;;;;3.66;nan;102266.47;5052946;28;20116;-54
2022/03/10 00:09:05;;;;;;;37.22;26.35;;;;;;;3.59;nan;102260.28;5053217;28;20033;-59
2022/03/10 00:11:31;;;;;;;38.20;26.58;;;;;;;3.51;nan;102263.59;5051495;28;20029;-59
2022/03/10 00:13:56;;;;;;;37.70;25.60;;;;;;;3.15;nan;102212.56;5053019;28;20041;-54
2022/03/10 00:16:22;;;;;;;39.60;26.35;;;;;;;3.02;nan;102194.09;5052588;28;20041;-55
2022/03/10 00:18:47;;;;;;;42.85;26.85;;;;;;;3.41;nan;102266.00;5052781;28;20106;-60
2022/03/10 00:21:13;;;;;;;38.45;26.30;;;;;;;3.37;nan;102263.31;5034595;28;20053;-57
2022/03/10 00:23:38;;;;;;;36.08;25.90;;;;;;;3.33;nan;102267.59;5052563;28;20469;-57
2022/03/10 00:26:04;;;;;;;40.53;26.27;;;;;;;3.26;nan;102259.66;5034892;28;20029;-58
2022/03/10 00:28:30;;;;;;;40.15;27.48;;;;;;;3.11;nan;102231.59;5050719;28;20083;-58
2022/03/10 00:30:55;;;;;;;36.15;25.55;;;;;;;3.21;nan;102243.91;5039900;28;20037;-59
2022/03/10 00:33:20;;;;;;;37.17;26.27;;;;;;;2.76;nan;102165.88;5054171;28;20119;-57
2022/03/10 00:35:46;;;;;;;34.35;25.55;;;;;;;3.24;nan;102263.94;5062913;28;20064;-55
2022/03/10 00:38:11;;;;;;;38.42;24.85;;;;;;;3.17;nan;102241.25;5034347;28;20400;-57
2022/03/10 00:40:36;;;;;;;37.33;25.77;;;;;;;3.15;nan;102251.59;5052018;28;20076;-55
2022/03/10 00:43:02;;;;;;;40.80;25.20;;;;;;;3.12;nan;102253.28;5052312;28;20037;-59
2022/03/10 00:45:27;;;;;;;37.03;26.30;;;;;;;2.74;nan;102180.53;5034549;28;20040;-56
2022/03/10 00:47:53;;;;;;;39.50;24.92;;;;;;;2.94;nan;102224.28;5052012;28;20036;-59
2022/03/10 00:50:20;;;;;;;36.33;25.10;;;;;;;2.76;nan;102188.38;5033983;28;20033;-57
2022/03/10 00:52:46;;;;;;;33.90;25.02;;;;;;;2.73;nan;102188.31;5051845;28;20119;-59
2022/03/10 00:55:15;;;;;;;34.40;24.42;;;;;;;2.61;nan;102165.53;5034371;28;20183;-58
2022/03/10 00:57:40;;;;;;;36.88;26.25;;;;;;;2.93;nan;102227.72;5052171;28;20112;-56
2022/03/10 01:00:06;;;;;;;36.55;25.98;;;;;;;3.00;nan;102235.72;5034102;28;20037;-60
2022/03/10 01:02:33;;;;;;;36.40;25.35;;;;;;;2.70;nan;102191.72;5051818;28;20032;-59
2022/03/10 01:04:58;;;;;;;39.67;25.05;;;;;;;2.86;nan;102241.47;5034091;28;20037;-57
2022/03/10 01:07:23;;;;;;;37.22;25.10;;;;;;;2.58;nan;102207.06;5034116;28;20116;-56
2022/03/10 01:09:49;;;;;;;34.95;24.95;;;;;;;2.77;nan;102244.75;5051771;28;20037;-58
2022/03/10 01:12:14;;;;;;;41.60;26.83;;;;;;;2.38;nan;102181.47;5051883;28;20040;-56
2022/03/10 01:14:39;;;;;;;39.17;25.45;;;;;;;2.64;nan;102246.19;5051736;28;20040;-59
2022/03/10 01:17:05;;;;;;;37.03;26.63;;;;;;;2.20;nan;102161.16;5051656;28;20132;-58
2022/03/10 01:19:31;;;;;;;37.42;26.13;;;;;;;2.24;nan;102183.78;5042214;28;20595;-58
2022/03/10 01:21:57;;;;;;;38.55;25.98;;;;;;;2.10;nan;102162.66;5075023;28;20119;-58
2022/03/10 01:24:23;;;;;;;43.00;27.88;;;;;;;2.42;nan;102220.56;5052542;28;20075;-56
2022/03/10 01:26:48;;;;;;;38.67;26.15;;;;;;;2.35;nan;102217.78;5058423;28;20033;-57
2022/03/10 01:29:13;;;;;;;37.63;26.88;;;;;;;2.39;nan;102240.41;5040217;28;20033;-54
2022/03/10 01:31:39;;;;;;;40.35;26.30;;;;;;;2.36;nan;102233.44;5058245;28;20399;-58
2022/03/10 01:34:05;;;;;;;38.65;26.58;;;;;;;2.32;nan;102228.09;5040204;28;20444;-53
2022/03/10 01:36:30;;;;;;;41.25;26.50;;;;;;;1.84;nan;102155.97;5057711;28;20068;-59
2022/03/10 01:38:55;;;;;;;36.83;25.77;;;;;;;1.78;nan;102154.97;5040212;28;20439;-55
2022/03/10 01:41:21;;;;;;;43.25;26.83;;;;;;;2.17;nan;102236.41;5058211;28;20374;-60
2022/03/10 01:43:56;;;;;;;38.38;25.92;;;;;;;2.11;nan;102220.69;5040260;28;20047;-58
2022/03/10 01:46:22;;;;;;;38.42;25.40;;;;;;;1.73;nan;102164.34;5058052;28;20065;-55
2022/03/10 01:48:47;;;;;;;39.72;27.50;;;;;;;1.94;nan;102206.41;5057966;28;20590;-55
2022/03/10 01:51:13;;;;;;;37.33;27.10;;;;;;;1.83;nan;102195.78;5058134;28;20028;-57
2022/03/10 01:53:38;;;;;;;37.42;26.10;;;;;;;1.91;nan;102222.81;5040942;28;20044;-56
2022/03/10 01:56:04;;;;;;;38.22;26.13;;;;;;;1.89;nan;102229.69;5058562;28;20139;-57
2022/03/10 01:58:29;;;;;;;39.92;26.48;;;;;;;1.83;nan;102215.66;5057001;28;20041;-57
2022/03/10 02:00:55;;;;;;;36.45;26.40;;;;;;;1.78;nan;102219.88;5057533;28;20484;-58
2022/03/10 02:03:20;;;;;;;36.50;25.95;;;;;;;1.80;nan;102213.88;5056670;28;20471;-57
2022/03/10 02:05:46;;;;;;;38.92;26.15;;;;;;;1.81;nan;102217.38;5039974;28;20040;-53
2022/03/10 02:10:55;;;;;;;44.20;28.33;;;;;;;1.74;nan;102213.72;5078257;28;20044;-56
2022/03/10 02:13:21;;;;;;;35.60;26.40;;;;;;;1.46;nan;102167.16;5060078;28;20036;-59
2022/03/10 02:18:30;;;;;;;36.63;25.73;;;;;;;1.76;nan;102229.31;5078015;28;20097;-61
2022/03/10 02:20:55;;;;;;;40.05;26.98;;;;;;;1.65;nan;102222.16;5059736;28;20048;-55
2022/03/10 02:23:22;;;;;;;38.65;27.30;;;;;;;1.62;nan;102221.19;5043086;28;20040;-57
2022/03/10 02:25:48;;;;;;;37.67;26.33;;;;;;;1.61;nan;102235.88;5057804;28;20119;-56
2022/03/10 02:28:13;;;;;;;39.25;26.60;;;;;;;1.53;nan;102229.63;5056144;28;20132;-59
2022/03/10 02:30:39;;;;;;;41.83;27.30;;;;;;;1.52;nan;102233.03;5057465;28;20033;-59
2022/03/10 02:33:05;;;;;;;40.65;26.08;;;;;;;1.27;nan;102194.31;5055534;28;20025;-58
2022/03/10 02:35:31;;;;;;;39.15;26.13;;;;;;;1.04;nan;102166.88;5053121;28;20040;-57
2022/03/10 02:37:56;;;;;;;38.22;26.92;;;;;;;1.33;nan;102233.41;5052130;28;20037;-61
2022/03/10 02:40:22;;;;;;;35.35;26.05;;;;;;;0.91;nan;102154.41;5051372;28;20033;-58
2022/03/10 02:42:47;;;;;;;35.65;25.10;;;;;;;1.31;nan;102234.19;5034147;28;20051;-56
2022/03/10 02:45:13;;;;;;;40.03;26.98;;;;;;;1.27;nan;102222.84;5051217;28;20135;-59
2022/03/10 02:47:38;;;;;;;39.83;27.92;;;;;;;1.17;nan;102235.53;5054244;28;20448;-57
2022/03/10 02:50:06;;;;;;;46.28;27.48;;;;;;;0.73;nan;102151.34;5053226;28;20048;-59
2022/03/10 02:52:33;;;;;;;42.42;27.52;;;;;;;1.07;nan;102221.44;5036606;28;20488;-59
2022/03/10 02:54:59;;;;;;;45.83;27.05;;;;;;;0.93;nan;102208.09;5054101;28;20040;-57
2022/03/10 02:57:27;;;;;;;40.00;27.52;;;;;;;0.91;nan;102211.44;5021718;28;20045;-55
2022/03/10 02:59:53;;;;;;;40.25;27.13;;;;;;;0.99;nan;102238.50;5073836;28;20025;-60
2022/03/10 03:02:18;;;;;;;48.90;29.08;;;;;;;0.88;nan;102221.72;5073899;28;20033;-61
2022/03/10 03:04:44;;;;;;;42.97;28.92;;;;;;;0.92;nan;102234.84;5073801;28;20064;-55
2022/03/10 03:07:09;;;;;;;36.85;27.15;;;;;;;0.51;nan;102167.97;5074039;28;20085;-57
2022/03/10 03:09:35;;;;;;;38.78;26.13;;;;;;;0.40;nan;102156.41;5073976;28;20071;-59
2022/03/10 03:12:01;;;;;;;43.00;29.23;;;;;;;0.84;nan;102246.69;5055800;28;20029;-57
2022/03/10 03:14:27;;;;;;;45.40;28.70;;;;;;;0.78;nan;102230.97;5073763;28;20036;-57
2022/03/10 03:16:57;;;;;;;38.05;26.60;;;;;;;0.73;nan;102245.47;5073809;28;20043;-53
2022/03/10 03:19:23;;;;;;;45.65;27.73;;;;;;;0.68;nan;102235.81;5055650;28;20043;-58
2022/03/10 03:21:48;;;;;;;42.67;29.15;;;;;;;0.63;nan;102227.91;5055443;28;20052;-54
2022/03/10 03:24:13;;;;;;;42.75;27.95;;;;;;;0.65;nan;102240.91;5066343;28;20036;-58
2022/03/10 03:26:39;;;;;;;45.35;29.42;;;;;;;0.60;nan;102253.72;5053476;28;20523;-58
2022/03/10 03:29:04;;;;;;;41.08;28.30;;;;;;;0.66;nan;102237.50;5035630;28;20091;-58
2022/03/10 03:31:30;;;;;;;38.92;26.95;;;;;;;0.56;nan;102210.41;5053490;28;20041;-59
2022/03/10 03:33:55;;;;;;;43.80;28.98;;;;;;;0.69;nan;102220.31;5035662;28;20025;-55
2022/03/10 03:36:21;;;;;;;40.20;26.60;;;;;;;0.96;nan;102243.59;5051850;28;20044;-54
2022/03/10 03:38:46;;;;;;;43.53;28.02;;;;;;;0.71;nan;102187.56;5053329;28;20032;-57
2022/03/10 03:41:11;;;;;;;40.72;28.33;;;;;;;0.82;nan;102193.03;5053325;28;20079;-57
2022/03/10 03:43:37;;;;;;;38.83;27.35;;;;;;;1.12;nan;102253.53;5053080;28;20047;-58
2022/03/10 03:46:02;;;;;;;38.95;28.45;;;;;;;1.03;nan;102232.53;5051642;28;20041;-54
2022/03/10 03:48:27;;;;;;;40.42;28.77;;;;;;;1.21;nan;102251.22;5062501;28;20036;-55
2022/03/10 03:50:53;;;;;;;39.88;26.67;;;;;;;1.13;nan;102227.69;5073099;28;20115;-61
2022/03/10 03:53:19;;;;;;;40.95;27.70;;;;;;;1.20;nan;102230.44;5072979;28;20395;-55
2022/03/10 03:55:44;;;;;;;37.30;27.02;;;;;;;0.97;nan;102183.09;5038209;28;20037;-56
2022/03/10 03:58:11;;;;;;;36.60;27.20;;;;;;;1.47;nan;102273.56;5072589;28;20036;-56
2022/03/10 04:00:36;;;;;;;36.85;25.88;;;;;;;1.53;nan;102263.34;5072762;28;20032;-59
2022/03/10 04:03:07;;;;;;;37.95;25.27;;;;;;;1.59;nan;102260.94;5055191;28;20422;-56
2022/03/10 04:05:32;;;;;;;40.40;28.17;;;;;;;1.46;nan;102224.25;5072882;28;20032;-57
2022/03/10 04:07:58;;;;;;;44.85;28.05;;;;;;;1.66;nan;102256.78;5072541;28;20028;-58
2022/03/10 04:10:23;;;;;;;38.28;27.48;;;;;;;1.26;nan;102202.94;5072468;28;20506;-59
2022/03/10 04:12:48;;;;;;;36.10;26.10;;;;;;;1.72;nan;102284.63;5072804;28;20035;-57
2022/03/10 04:15:14;;;;;;;39.10;27.45;;;;;;;1.67;nan;102276.69;5073114;28;20090;-56
2022/03/10 04:17:40;;;;;;;41.70;27.15;;;;;;;1.34;nan;102224.78;5054760;28;20064;-59
2022/03/10 04:20:08;;;;;;;37.85;27.00;;;;;;;1.45;nan;102253.59;5072318;28;20024;-60
2022/03/10 04:22:34;;;;;;;38.70;27.33;;;;;;;1.52;nan;102284.94;5054905;28;20415;-58
2022/03/10 04:24:59;;;;;;;38.33;26.77;;;;;;;1.45;nan;102271.78;5059081;28;20033;-59
2022/03/10 04:27:24;;;;;;;39.03;26.63;;;;;;;1.42;nan;102259.59;5052265;28;20041;-59
2022/03/10 04:29:50;;;;;;;38.35;27.15;;;;;;;1.53;nan;102286.72;5052332;28;20053;-57
2022/03/10 04:32:15;;;;;;;37.30;27.48;;;;;;;1.63;nan;102280.06;5052379;28;20033;-59
2022/03/10 04:34:41;;;;;;;40.25;27.00;;;;;;;1.66;nan;102277.53;5052448;28;20044;-62
2022/03/10 04:37:06;;;;;;;39.50;26.83;;;;;;;1.24;nan;102207.22;5054318;28;20033;-57
2022/03/10 04:39:31;;;;;;;41.17;27.25;;;;;;;1.65;nan;102276.66;5072193;28;20116;-61
2022/03/10 04:41:57;;;;;;;41.92;28.23;;;;;;;1.32;nan;102212.59;5072586;28;20032;-60
2022/03/10 04:44:22;;;;;;;39.13;28.23;;;;;;;1.34;nan;102222.19;5072472;28;20032;-58
2022/03/10 04:46:47;;;;;;;39.58;28.17;;;;;;;1.46;nan;102251.03;5072852;28;20380;-57
2022/03/10 04:49:13;;;;;;;40.10;28.17;;;;;;;1.12;nan;102192.19;5054148;28;20036;-56
2022/03/10 04:51:38;;;;;;;39.53;27.80;;;;;;;1.26;nan;102209.81;5071903;28;20120;-58
2022/03/10 04:54:03;;;;;;;41.20;27.05;;;;;;;1.46;nan;102256.22;5072122;28;20044;-60
2022/03/10 04:56:29;;;;;;;40.40;28.75;;;;;;;1.18;nan;102225.19;5071098;28;20040;-58
2022/03/10 04:58:54;;;;;;;37.33;26.30;;;;;;;1.35;nan;102270.63;5071811;28;20036;-58
2022/03/10 05:01:19;;;;;;;42.30;28.55;;;;;;;1.26;nan;102264.28;5071962;28;20415;-55
2022/03/10 05:03:45;;;;;;;42.38;27.83;;;;;;;1.15;nan;102248.44;5071714;28;20508;-55
2022/03/10 05:06:10;;;;;;;38.00;27.17;;;;;;;1.22;nan;102260.75;5071631;28;20025;-58
2022/03/10 05:08:35;;;;;;;42.60;28.90;;;;;;;0.74;nan;102178.97;5053785;28;20435;-60
2022/03/10 05:11:01;;;;;;;47.83;28.23;;;;;;;1.20;nan;102253.78;5071645;28;20028;-57
2022/03/10 05:13:26;;;;;;;37.80;27.48;;;;;;;0.81;nan;102178.34;5071949;28;20036;-58
2022/03/10 05:15:51;;;;;;;39.65;27.00;;;;;;;1.18;nan;102240.75;5071881;28;20048;-62
2022/03/10 05:18:17;;;;;;;37.15;27.15;;;;;;;0.84;nan;102183.59;5071970;28;20040;-55
2022/03/10 05:20:42;;;;;;;40.78;28.40;;;;;;;1.19;nan;102246.81;5071387;28;20063;-59
2022/03/10 05:23:08;;;;;;;44.72;29.02;;;;;;;1.24;nan;102261.69;5071634;28;20095;-60
2022/03/10 05:25:34;;;;;;;39.00;26.50;;;;;;;1.24;nan;102265.97;5053318;28;20040;-55
2022/03/10 05:28:00;;;;;;;38.80;26.48;;;;;;;1.12;nan;102253.53;5062605;28;20037;-56
2022/03/10 05:30:25;;;;;;;38.28;27.35;;;;;;;0.72;nan;102198.81;5071588;28;20040;-58
2022/03/10 05:32:51;;;;;;;39.80;28.35;;;;;;;0.73;nan;102185.03;5071868;28;20048;-56
2022/03/10 05:35:17;;;;;;;45.33;28.77;;;;;;;0.96;nan;102217.66;5071488;28;20464;-56
2022/03/10 05:37:44;;;;;;;37.03;26.98;;;;;;;1.18;nan;102264.09;5036738;28;20127;-61
2022/03/10 05:40:12;;;;;;;39.28;26.90;;;;;;;1.01;nan;102224.72;5053527;28;20032;-57
2022/03/10 05:42:38;;;;;;;37.92;26.75;;;;;;;1.14;nan;102263.13;5053601;28;20025;-57
2022/03/10 05:45:05;;;;;;;38.30;26.83;;;;;;;1.23;nan;102272.00;5071525;28;20059;-61
2022/03/10 05:47:31;;;;;;;37.40;26.92;;;;;;;1.25;nan;102276.41;5053748;28;20029;-59
2022/03/10 05:49:56;;;;;;;42.70;27.73;;;;;;;1.17;nan;102254.53;5071113;28;20032;-56
2022/03/10 05:52:21;;;;;;;42.17;27.77;;;;;;;1.24;nan;102269.47;5071278;28;20036;-57
2022/03/10 05:54:47;;;;;;;38.15;26.95;;;;;;;0.86;nan;102197.47;5071586;28;20040;-57
2022/03/10 05:57:12;;;;;;;43.50;27.92;;;;;;;1.21;nan;102264.19;5071320;28;20391;-54
2022/03/10 05:59:37;;;;;;;38.15;27.73;;;;;;;1.20;nan;102264.16;5053114;28;20127;-60
2022/03/10 06:02:03;;;;;;;39.15;27.83;;;;;;;0.62;nan;102183.81;5070992;28;20127;-59
2022/03/10 06:04:28;;;;;;;39.15;27.55;;;;;;;1.05;nan;102272.38;5071168;28;20124;-58
2022/03/10 06:06:53;;;;;;;41.53;29.02;;;;;;;0.87;nan;102245.91;5071227;28;20041;-58
2022/03/10 06:09:19;;;;;;;39.67;27.35;;;;;;;0.94;nan;102269.44;5074550;28;20040;-56
2022/03/10 06:11:44;;;;;;;39.80;28.73;;;;;;;0.93;nan;102270.31;5075023;28;20020;-58
2022/03/10 06:14:12;;;;;;;38.05;27.75;;;;;;;0.89;nan;102273.63;5057027;28;20034;-56
2022/03/10 06:16:38;;;;;;;42.42;27.23;;;;;;;0.82;nan;102270.78;5056681;28;20044;-59
2022/03/10 06:19:04;;;;;;;42.17;29.08;;;;;;;0.58;nan;102212.22;5075170;28;20471;-57
2022/03/10 06:21:29;;;;;;;38.80;27.50;;;;;;;0.90;nan;102264.16;5074419;28;20071;-59
2022/03/10 06:23:55;;;;;;;38.90;27.63;;;;;;;0.94;nan;102263.38;5052340;28;20025;-56
2022/03/10 06:26:20;;;;;;;42.60;29.10;;;;;;;0.60;nan;102207.09;5054697;28;20121;-58
2022/03/10 06:28:46;;;;;;;37.10;28.00;;;;;;;0.84;nan;102262.25;5036873;28;20047;-58
2022/03/10 06:31:12;;;;;;;42.17;28.50;;;;;;;0.84;nan;102261.38;5036878;28;20035;-56
2022/03/10 06:33:37;;;;;;;42.67;28.30;;;;;;;0.88;nan;102258.91;5055386;28;20036;-61
2022/03/10 06:36:04;;;;;;;40.30;27.10;;;;;;;0.58;nan;102201.00;5063617;28;20507;-60
2022/03/10 06:38:30;;;;;;;40.25;27.73;;;;;;;0.97;nan;102253.09;5066543;28;20033;-57
2022/03/10 06:40:55;;;;;;;41.05;28.20;;;;;;;1.09;nan;102258.66;5073887;28;20036;-59
2022/03/10 06:43:20;;;;;;;40.65;27.42;;;;;;;0.81;nan;102192.19;5065603;28;20387;-58
2022/03/10 06:45:46;;;;;;;41.58;29.63;;;;;;;0.82;nan;102186.13;5055175;28;20045;-57
2022/03/10 06:48:11;;;;;;;42.25;28.35;;;;;;;1.30;nan;102269.63;5064040;28;20036;-58
2022/03/10 06:50:37;;;;;;;39.83;27.88;;;;;;;1.42;nan;102263.91;5052232;28;20033;-59
2022/03/10 06:53:03;;;;;;;38.28;27.25;;;;;;;1.25;nan;102210.69;5053145;28;20055;-59
2022/03/10 06:55:29;;;;;;;40.92;28.17;;;;;;;1.62;nan;102244.56;5035820;28;20067;-58
2022/03/10 06:57:55;;;;;;;41.05;28.05;;;;;;;1.93;nan;102279.97;5035693;28;21059;-58
2022/03/10 07:00:21;;;;;;;36.13;27.40;;;;;;;1.69;nan;102212.75;5034989;28;20029;-58
2022/03/10 07:02:46;;;;;;;38.00;26.17;;;;;;;1.91;nan;102228.00;5052631;28;20065;-59
2022/03/10 07:05:12;;;;;;;39.83;27.60;;;;;;;1.96;nan;102205.63;5053784;28;20040;-57
2022/03/10 07:07:37;;;;;;;35.08;26.23;;;;;;;2.05;nan;102218.81;5053749;28;20033;-56
2022/03/10 07:10:04;;;;;;;35.78;26.83;;;;;;;2.40;nan;102291.53;5036456;28;20032;-57
2022/03/10 07:12:29;;;;;;;38.05;25.88;;;;;;;2.26;nan;102260.03;5052758;28;20035;-56
2022/03/10 07:14:55;;;;;;;39.28;26.40;;;;;;;2.61;nan;102299.84;5053757;28;20033;-59
2022/03/10 07:17:20;;;;;;;37.50;26.48;;;;;;;2.89;nan;102301.34;5053744;28;20117;-58
2022/03/10 07:19:46;;;;;;;39.60;26.25;;;;;;;3.09;nan;102300.06;5052931;28;20074;-57
2022/03/10 07:22:16;;;;;;;33.58;25.15;;;;;;;3.41;nan;102312.00;5053480;28;20045;-56
2022/03/10 07:24:41;;;;;;;34.25;26.08;;;;;;;3.74;nan;102320.47;5019335;28;20036;-59
2022/03/10 07:27:07;;;;;;;32.28;24.15;;;;;;;4.05;nan;102314.09;5035617;28;20043;-59
2022/03/10 07:29:33;;;;;;;33.88;24.15;;;;;;;4.24;nan;102278.78;5053473;28;20061;-58
2022/03/10 07:31:58;;;;;;;32.95;24.98;;;;;;;5.12;nan;102317.50;5053422;28;20033;-58
2022/03/10 07:34:23;;;;;;;34.40;25.98;;;;;;;5.50;nan;102317.97;5035443;28;20513;-59
2022/03/10 07:36:49;;;;;;;31.67;24.52;;;;;;;5.98;nan;102343.81;5053176;28;20116;-59
2022/03/10 07:39:14;;;;;;;32.40;24.90;;;;;;;6.37;nan;102331.09;5053306;28;20036;-60
2022/03/10 07:41:39;;;;;;;36.05;26.17;;;;;;;6.60;nan;102337.38;5035415;28;20037;-59
2022/03/10 07:44:05;;;;;;;31.67;25.38;;;;;;;6.71;nan;102338.34;5053047;28;20487;-58
2022/03/10 07:46:30;;;;;;;35.35;25.50;;;;;;;6.89;nan;102342.81;5053124;28;20033;-58
2022/03/10 07:48:56;;;;;;;29.73;22.73;;;;;;;7.25;nan;102337.81;5053106;28;20065;-58
2022/03/10 07:51:21;;;;;;;31.73;23.90;;;;;;;7.82;nan;102326.66;5034937;28;20115;-57
2022/03/10 07:53:47;;;;;;;28.92;24.38;;;;;;;8.02;nan;102345.06;5053025;28;20044;-56
2022/03/10 07:56:13;;;;;;;34.22;26.15;;;;;;;7.92;nan;102333.69;5052459;28;20041;-57
2022/03/10 07:58:38;;;;;;;32.17;25.25;;;;;;;7.93;nan;102293.50;5034946;28;20112;-58
2022/03/10 08:01:03;;;;;;;33.33;25.20;;;;;;;8.29;nan;102345.13;5034646;28;20403;-57
2022/03/10 08:03:29;;;;;;;34.67;25.00;;;;;;;8.44;nan;102339.00;5052701;28;20120;-58
2022/03/10 08:05:55;;;;;;;33.10;25.50;;;;;;;8.70;nan;102344.28;5034849;28;20041;-55
2022/03/10 08:08:20;;;;;;;31.38;24.42;;;;;;;8.74;nan;102343.38;5052829;28;20476;-58
2022/03/10 08:10:46;;;;;;;32.22;24.70;;;;;;;8.94;nan;102341.59;5052446;28;20025;-56
2022/03/10 08:13:11;;;;;;;31.02;25.77;;;;;;;9.04;nan;102324.97;5052798;28;20033;-56
2022/03/10 08:15:37;;;;;;;32.10;25.65;;;;;;;9.54;nan;102348.44;5018351;28;20124;-55
2022/03/10 08:18:03;;;;;;;29.88;25.75;;;;;;;10.27;nan;102345.41;5034599;28;20098;-54
2022/03/10 08:20:28;;;;;;;32.70;24.48;;;;;;;10.64;nan;102329.31;5052406;28;20076;-57
2022/03/10 08:22:54;;;;;;;29.63;25.63;;;;;;;10.94;nan;102338.69;5052159;28;20045;-56
2022/03/10 08:25:19;;;;;;;30.60;24.52;;;;;;;10.83;nan;102331.78;5052523;28;20095;-57
2022/03/10 08:27:47;;;;;;;33.22;25.10;;;;;;;10.75;nan;102266.00;5034100;28;20446;-56
2022/03/10 08:30:14;;;;;;;29.73;23.95;;;;;;;11.01;nan;102302.59;5050931;28;20037;-57
2022/03/10 08:32:43;;;;;;;29.90;24.45;;;;;;;11.38;nan;102325.03;5050189;28;20039;-59
2022/03/10 08:35:08;;;;;;;29.02;24.27;;;;;;;11.79;nan;102322.72;5051933;28;20033;-58
2022/03/10 08:37:33;;;;;;;30.90;25.00;;;;;;;11.98;nan;102323.34;5034664;28;20114;-58
2022/03/10 08:39:59;;;;;;;29.67;25.70;;;;;;;11.91;nan;102265.41;5052166;28;20036;-59
2022/03/10 08:42:24;;;;;;;29.27;24.48;;;;;;;12.03;nan;102257.28;5034254;28;20021;-59
2022/03/10 08:44:49;;;;;;;27.60;24.52;;;;;;;12.53;nan;102269.66;5051617;28;20078;-57
2022/03/10 08:47:15;;;;;;;30.45;26.17;;;;;;;12.82;nan;102317.53;5050686;28;20086;-57
2022/03/10 08:49:40;;;;;;;31.75;24.67;;;;;;;12.68;nan;102270.25;5049991;28;20129;-58
2022/03/10 08:52:06;;;;;;;28.92;25.02;;;;;;;13.37;nan;102317.38;5034115;28;20239;-58
2022/03/10 08:54:32;;;;;;;27.02;23.27;;;;;;;13.34;nan;102298.94;5051842;28;20076;-56
2022/03/10 08:56:57;;;;;;;29.88;25.33;;;;;;;13.40;nan;102273.22;5051785;28;20040;-60
2022/03/10 08:59:22;;;;;;;30.17;24.65;;;;;;;13.51;nan;102310.06;5051769;28;20536;-60
2022/03/10 09:01:48;;;;;;;30.75;25.00;;;;;;;13.41;nan;102243.25;5051768;28;20033;-60
2022/03/10 09:04:13;;;;;;;28.10;24.27;;;;;;;13.36;nan;102241.59;5051765;28;20040;-56
2022/03/10 09:06:38;;;;;;;28.33;24.13;;;;;;;13.57;nan;102242.91;5051908;28;20107;-55
2022/03/10 09:09:04;;;;;;;28.98;24.00;;;;;;;13.87;nan;102250.13;5051449;28;20110;-54
2022/03/10 09:11:29;;;;;;;31.40;24.63;;;;;;;14.23;nan;102302.22;5051660;28;20113;-56
2022/03/10 09:13:54;;;;;;;29.17;24.23;;;;;;;14.92;nan;102312.81;5051073;28;20192;-55
2022/03/10 09:16:21;;;;;;;30.33;24.98;;;;;;;14.79;nan;102284.91;5051416;28;20083;-55
2022/03/10 09:18:47;;;;;;;33.95;25.98;;;;;;;15.29;nan;102287.91;5050111;28;20559;-54
2022/03/10 09:21:13;;;;;;;31.90;24.60;;;;;;;15.06;nan;102243.50;5034187;28;20139;-58
2022/03/10 09:23:38;;;;;;;27.88;24.77;;;;;;;15.30;nan;102301.13;5051753;28;20072;-56
2022/03/10 09:26:04;;;;;;;30.02;24.70;;;;;;;15.41;nan;102285.75;5051661;28;20033;-54
2022/03/10 09:28:29;;;;;;;27.27;24.33;;;;;;;15.46;nan;102240.53;5033642;28;20044;-55
2022/03/10 09:30:54;;;;;;;28.90;23.95;;;;;;;16.13;nan;102289.75;5033880;28;20064;-55
2022/03/10 09:33:20;;;;;;;26.13;23.38;;;;;;;16.36;nan;102247.34;5051384;28;20029;-52
2022/03/10 09:35:45;;;;;;;27.42;23.65;;;;;;;;;;5051241;28;20037;-48
2022/03/10 09:38:10;;;;;;;28.00;24.60;;;;;;;;;;5051798;28;20078;-53
2022/03/10 09:40:36;;;;;;;28.77;25.23;;;;;;;;;;5051670;28;20063;-54
2022/03/10 09:43:01;;;;;;;28.20;24.75;;;;;;;;;;5053376;28;20275;-54
2022/03/10 09:45:29;;;;;;;30.60;24.23;;;;;;;;;;5037917;28;20603;-55
2022/03/10 09:47:54;;;;;;;31.10;23.38;;;;;;;;;;5055523;28;20029;-56
2022/03/10 09:50:19;;;;;;;26.98;24.05;;;;;;;;;;5055752;28;20479;-57
2022/03/10 09:52:45;;;;;;;28.50;25.40;;;;;;;;;;5055601;28;20522;-53
2022/03/10 09:55:11;;;;;;;30.60;24.95;;;;;;;;;;5055593;28;20749;-53
2022/03/10 09:57:41;;;;;;;27.85;23.85;;;;;;;;;;5055284;28;20068;-49
2022/03/10 10:00:08;;;;;;;30.90;25.05;;;;;;;18.71;nan;102280.88;5055822;28;20404;-57
2022/03/10 10:02:34;;;;;;;28.58;25.00;;;;;;;18.62;nan;102265.25;5055087;28;20036;-56
2022/03/10 10:05:00;;;;;;;28.30;25.30;;;;;;;18.44;nan;102275.75;5055136;28;20461;-54
2022/03/10 10:07:29;;;;;;;29.42;26.27;;;;;;;18.59;nan;102268.06;5055148;28;20041;-51
2022/03/10 10:09:57;;;;;;;27.85;24.92;;;;;;;18.66;nan;102282.84;5055228;28;20064;-53
2022/03/10 10:12:30;;;;;;;27.65;24.75;;;;;;;19.07;nan;102277.44;5055133;28;20068;-57
2022/03/10 10:14:56;;;;;;;29.30;24.30;;;;;;;;;;5054889;28;20028;-57
2022/03/10 10:17:29;;;;;;;27.90;24.90;;;;;;;;;;5054834;28;20064;-51
2022/03/10 10:19:56;;;;;;;28.98;25.95;;;;;;;19.20;nan;102215.50;5037240;28;20040;-57
2022/03/10 10:22:23;;;;;;;28.35;25.30;;;;;;;18.77;nan;102200.53;5054494;28;20511;-57
2022/03/10 10:24:49;;;;;;;27.00;22.95;;;;;;;19.54;nan;102269.06;5037211;28;20036;-55
2022/03/10 10:27:20;;;;;;;29.00;24.70;;;;;;;19.42;nan;102266.97;5054653;28;20037;-54
2022/03/10 10:29:46;;;;;;;27.63;24.63;;;;;;;19.42;nan;102273.19;5054538;28;20433;-54
2022/03/10 10:32:12;;;;;;;28.77;25.67;;;;;;;19.32;nan;102213.09;5054826;28;20040;-55
2022/03/10 10:34:37;;;;;;;31.25;24.70;;;;;;;19.89;nan;102235.31;5054843;28;20443;-57
2022/03/10 10:37:03;;;;;;;28.15;25.02;;;;;;;;;;5054548;28;20051;-53
2022/03/10 10:39:28;;;;;;;32.35;25.17;;;;;;;;;;5054292;28;20041;-53
2022/03/10 10:41:53;;;;;;;27.38;24.48;;;;;;;;;;5054305;28;20029;-53
2022/03/10 10:44:20;;;;;;;28.60;25.60;;;;;;;20.77;nan;102263.81;5019997;28;20151;-56
2022/03/10 10:46:49;;;;;;;29.10;25.58;;;;;;;20.88;nan;102202.53;5053279;28;20056;-54
2022/03/10 10:49:17;;;;;;;27.83;24.95;;;;;;;;;;5054380;28;20045;-56
2022/03/10 10:51:52;;;;;;;28.45;24.63;;;;;;;;;;5054374;28;20033;-53
2022/03/10 10:54:21;;;;;;;29.30;26.15;;;;;;;;;;5053217;28;20063;-57
2022/03/10 10:56:51;;;;;;;28.75;25.65;;;;;;;;;;5053905;28;20125;-52
2022/03/10 10:59:36;;;;;;;28.40;25.30;;;;;;;;;;5054112;28;20086;-54
2022/03/10 11:02:17;;;;;;;26.88;23.90;;;;;;;;;;5054192;28;20365;-55
2022/03/10 11:04:43;;;;;;;28.70;25.80;;;;;;;;;;5036117;28;20072;-55
2022/03/10 11:07:09;;;;;;;31.00;25.75;;;;;;;;;;5054004;28;20036;-55
2022/03/10 11:09:35;;;;;;;29.65;26.42;;;;;;;;;;5054127;28;20033;-53
2022/03/10 11:12:01;;;;;;;28.20;25.23;;;;;;;;;;5053979;28;20036;-56
2022/03/10 11:14:26;;;;;;;28.83;25.67;;;;;;;;;;5053912;28;20068;-56
2022/03/10 11:16:52;;;;;;;27.40;24.50;;;;;;;;;;5053818;28;20076;-53
2022/03/10 11:19:20;;;;;;;29.25;25.55;;;;;;;;;;5053854;28;20087;-52
2022/03/10 11:21:48;;;;;;;25.77;23.20;;;;;;;;;;5036322;28;20057;-53
2022/03/10 11:24:29;;;;;;;28.75;25.92;;;;;;;;;;5054000;28;20037;-55
2022/03/10 11:26:54;;;;;;;27.40;24.35;;;;;;;;;;5036057;28;20091;-54
2022/03/10 11:29:21;;;;;;;26.30;23.53;;;;;;;;;;5053817;28;20048;-54
2022/03/10 11:31:47;;;;;;;26.95;24.13;;;;;;;;;;5053642;28;20125;-55
2022/03/10 11:34:32;;;;;;;31.27;26.38;;;;;;;;;;5053635;28;20072;-54
2022/03/10 11:36:57;;;;;;;28.60;25.58;;;;;;;;;;5035480;28;20129;-56
2022/03/10 11:39:23;;;;;;;27.47;24.50;;;;;;;;;;5053591;28;20060;-56
2022/03/10 11:41:53;;;;;;;29.75;26.55;;;;;;;;;;5053492;28;20750;-54
2022/03/10 11:44:21;;;;;;;27.58;24.75;;;;;;;;;;5053484;28;20051;-55
2022/03/10 11:46:57;;;;;;;28.27;25.38;;;;;;;;;;5053246;28;20353;-51
2022/03/10 11:49:25;;;;;;;27.92;24.85;;;;;;;;;;5053506;28;20025;-54
2022/03/10 11:51:52;;;;;;;27.73;24.77;;;;;;;;;;5053396;28;20029;-55